Time,TemperatureF,DewpointF,PressureIn,WindDirection,WindDirectionDegrees,WindSpeedMPH,WindSpeedGustMPH,Humidity,HourlyPrecipIn,Conditions,Clouds,dailyrainin,SoftwareType,DateUTC
2013-05-02 00:14:00,69.1,56.0,30.17,SW,225,2.0,14.0,64,0.00,,,0.00,weatherlink.com 1.10,2013-05-02 04:14:00,
2013-05-02 00:29:00,68.5,56.0,30.18,SSW,203,3.0,12.0,65,0.00,,,0.00,weatherlink.com 1.10,2013-05-02 04:29:00,
2013-05-02 00:44:00,68.0,56.0,30.18,SW,228,6.0,12.0,66,0.00,,,0.00,weatherlink.com 1.10,2013-05-02 04:44:00,
2013-05-02 00:59:00,67.5,56.0,30.18,SW,226,4.0,12.0,67,0.00,,,0.00,weatherlink.com 1.10,2013-05-02 04:59:00,
2013-05-02 01:14:00,67.1,56.0,30.18,South,186,5.0,11.0,68,0.00,,,0.00,weatherlink.com 1.10,2013-05-02 05:14:00,
2013-05-02 01:29:00,66.7,56.0,30.18,SW,232,4.0,13.0,69,0.00,,,0.00,weatherlink.com 1.10,2013-05-02 05:29:00,
2013-05-02 01:44:00,66.3,56.0,30.18,SW,226,11.0,11.0,69,0.00,,,0.00,weatherlink.com 1.10,2013-05-02 05:44:00,
2013-05-02 02:00:00,65.8,56.0,30.17,South,188,6.0,11.0,70,0.00,,,0.00,weatherlink.com 1.10,2013-05-02 06:00:00,
2013-05-02 02:15:00,65.4,55.0,30.17,SW,214,6.0,12.0,70,0.00,,,0.00,weatherlink.com 1.10,2013-05-02 06:15:00,
2013-05-02 02:30:00,65.2,55.0,30.16,South,186,4.0,13.0,70,0.00,,,0.00,weatherlink.com 1.10,2013-05-02 06:30:00,
2013-05-02 02:45:00,64.9,55.0,30.16,South,183,9.0,11.0,70,0.00,,,0.00,weatherlink.com 1.10,2013-05-02 06:45:00,
2013-05-02 03:00:00,64.5,55.0,30.16,SSW,200,3.0,11.0,70,0.00,,,0.00,weatherlink.com 1.10,2013-05-02 07:00:00,
2013-05-02 03:15:00,64.2,54.0,30.16,South,186,6.0,11.0,70,0.00,,,0.00,weatherlink.com 1.10,2013-05-02 07:15:00,
2013-05-02 03:30:00,63.9,54.0,30.16,South,179,6.0,11.0,70,0.00,,,0.00,weatherlink.com 1.10,2013-05-02 07:30:00,
2013-05-02 03:45:00,63.5,54.0,30.16,SW,235,7.0,11.0,70,0.00,,,0.00,weatherlink.com 1.10,2013-05-02 07:45:00,
2013-05-02 04:00:00,63.0,53.0,30.16,SSW,193,5.0,10.0,71,0.00,,,0.00,weatherlink.com 1.10,2013-05-02 08:00:00,
2013-05-02 04:15:00,62.8,53.0,30.16,SSE,160,5.0,11.0,71,0.00,,,0.00,weatherlink.com 1.10,2013-05-02 08:15:00,
2013-05-02 04:30:00,62.6,53.0,30.16,SW,233,3.0,10.0,71,0.00,,,0.00,weatherlink.com 1.10,2013-05-02 08:30:00,
2013-05-02 04:45:00,62.4,53.0,30.16,SSE,161,9.0,11.0,71,0.00,,,0.00,weatherlink.com 1.10,2013-05-02 08:45:00,
2013-05-02 05:00:00,62.4,52.0,30.16,SW,226,3.0,13.0,70,0.00,,,0.00,weatherlink.com 1.10,2013-05-02 09:00:00,
2013-05-02 05:15:00,62.2,52.0,30.16,SW,232,5.0,13.0,70,0.00,,,0.00,weatherlink.com 1.10,2013-05-02 09:15:00,
2013-05-02 05:30:00,62.0,52.0,30.16,South,171,7.0,9.0,70,0.00,,,0.00,weatherlink.com 1.10,2013-05-02 09:30:00,
2013-05-02 05:45:00,61.8,52.0,30.16,South,178,7.0,11.0,70,0.00,,,0.00,weatherlink.com 1.10,2013-05-02 09:45:00,
2013-05-02 06:00:00,61.9,52.0,30.17,SSE,155,3.0,11.0,69,0.00,,,0.00,weatherlink.com 1.10,2013-05-02 10:00:00,
2013-05-02 06:15:00,61.8,51.0,30.18,SE,129,1.0,6.0,69,0.00,,,0.00,weatherlink.com 1.10,2013-05-02 10:15:00,
2013-05-02 06:30:00,61.4,52.0,30.18,East,96,1.0,5.0,70,0.00,,,0.00,weatherlink.com 1.10,2013-05-02 10:30:00,
2013-05-02 06:45:00,61.0,54.0,30.18,East,86,6.0,6.0,77,0.00,,,0.00,weatherlink.com 1.10,2013-05-02 10:45:00,
2013-05-02 07:00:00,60.8,54.0,30.19,East,91,6.0,6.0,77,0.00,,,0.00,weatherlink.com 1.10,2013-05-02 11:00:00,
2013-05-02 07:15:00,60.3,54.0,30.19,ENE,74,8.0,8.0,79,0.00,,,0.00,weatherlink.com 1.10,2013-05-02 11:15:00,
2013-05-02 07:30:00,56.8,53.0,30.20,ENE,59,10.0,11.0,88,0.00,,,0.00,weatherlink.com 1.10,2013-05-02 11:30:00,
2013-05-02 07:45:00,55.8,53.0,30.20,ENE,60,11.0,12.0,90,0.00,,,0.00,weatherlink.com 1.10,2013-05-02 11:45:00,
2013-05-02 08:00:00,55.9,53.0,30.21,ENE,60,9.0,11.0,91,0.00,,,0.00,weatherlink.com 1.10,2013-05-02 12:00:00,
2013-05-02 08:15:00,55.9,53.0,30.21,ENE,61,9.0,11.0,89,0.00,,,0.00,weatherlink.com 1.10,2013-05-02 12:15:00,
2013-05-02 08:30:00,56.3,54.0,30.21,ENE,65,10.0,11.0,90,0.00,,,0.00,weatherlink.com 1.10,2013-05-02 12:30:00,
2013-05-02 08:46:00,55.7,53.0,30.22,ENE,61,10.0,11.0,89,0.00,,,0.00,weatherlink.com 1.10,2013-05-02 12:46:00,
2013-05-02 09:01:00,55.1,53.0,30.22,NE,53,9.0,11.0,91,0.00,,,0.00,weatherlink.com 1.10,2013-05-02 13:01:00,
2013-05-02 09:16:00,54.3,52.0,30.21,NE,47,12.0,12.0,91,0.00,,,0.00,weatherlink.com 1.10,2013-05-02 13:16:00,
2013-05-02 09:31:00,54.0,51.0,30.22,NE,50,12.0,13.0,90,0.00,,,0.00,weatherlink.com 1.10,2013-05-02 13:31:00,
2013-05-02 09:46:00,53.6,51.0,30.21,NE,39,12.0,14.0,91,0.00,,,0.00,weatherlink.com 1.10,2013-05-02 13:46:00,
2013-05-02 10:01:00,53.3,51.0,30.21,NE,49,12.0,13.0,91,0.00,,,0.00,weatherlink.com 1.10,2013-05-02 14:01:00,
2013-05-02 10:16:00,53.5,51.0,30.21,NE,47,10.0,12.0,91,0.00,,,0.00,weatherlink.com 1.10,2013-05-02 14:16:00,
2013-05-02 10:31:00,53.6,51.0,30.21,ENE,57,12.0,13.0,90,0.00,,,0.00,weatherlink.com 1.10,2013-05-02 14:31:00,
2013-05-02 10:46:00,53.8,51.0,30.21,NE,41,11.0,12.0,91,0.00,,,0.00,weatherlink.com 1.10,2013-05-02 14:46:00,
2013-05-02 11:01:00,54.1,51.0,30.21,NE,53,10.0,12.0,90,0.00,,,0.00,weatherlink.com 1.10,2013-05-02 15:01:00,
2013-05-02 11:16:00,54.3,51.0,30.21,NE,53,12.0,12.0,89,0.00,,,0.00,weatherlink.com 1.10,2013-05-02 15:16:00,
2013-05-02 11:31:00,54.8,52.0,30.21,NE,44,12.0,12.0,89,0.00,,,0.00,weatherlink.com 1.10,2013-05-02 15:31:00,
2013-05-02 11:46:00,54.8,51.0,30.20,NE,51,11.0,12.0,87,0.00,,,0.00,weatherlink.com 1.10,2013-05-02 15:46:00,
2013-05-02 12:01:00,55.2,51.0,30.20,ENE,63,10.0,12.0,86,0.00,,,0.00,weatherlink.com 1.10,2013-05-02 16:01:00,
2013-05-02 12:16:00,55.5,51.0,30.20,NE,56,11.0,11.0,86,0.00,,,0.00,weatherlink.com 1.10,2013-05-02 16:16:00,
2013-05-02 12:31:00,55.8,52.0,30.20,NE,46,8.0,11.0,86,0.00,,,0.00,weatherlink.com 1.10,2013-05-02 16:31:00,
2013-05-02 12:46:00,56.4,52.0,30.20,NE,43,9.0,10.0,86,0.00,,,0.00,weatherlink.com 1.10,2013-05-02 16:46:00,
2013-05-02 13:02:00,57.2,53.0,30.19,NE,49,9.0,11.0,85,0.00,,,0.00,weatherlink.com 1.10,2013-05-02 17:02:00,
2013-05-02 13:16:00,57.4,53.0,30.19,NE,49,10.0,11.0,85,0.00,,,0.00,weatherlink.com 1.10,2013-05-02 17:16:00,
2013-05-02 13:31:00,57.4,53.0,30.18,ENE,65,12.0,12.0,84,0.00,,,0.00,weatherlink.com 1.10,2013-05-02 17:31:00,
2013-05-02 13:46:00,57.6,53.0,30.18,ENE,65,13.0,15.0,84,0.00,,,0.00,weatherlink.com 1.10,2013-05-02 17:46:00,
2013-05-02 14:01:00,57.4,52.0,30.17,ENE,65,13.0,14.0,83,0.00,,,0.00,weatherlink.com 1.10,2013-05-02 18:01:00,
2013-05-02 14:16:00,58.2,52.0,30.17,ENE,57,14.0,16.0,81,0.00,,,0.00,weatherlink.com 1.10,2013-05-02 18:16:00,
2013-05-02 14:31:00,58.7,53.0,30.16,ENE,59,10.0,15.0,80,0.00,,,0.00,weatherlink.com 1.10,2013-05-02 18:31:00,
2013-05-02 14:46:00,58.5,53.0,30.16,ENE,75,11.0,11.0,81,0.00,,,0.00,weatherlink.com 1.10,2013-05-02 18:46:00,
2013-05-02 15:01:00,58.6,53.0,30.15,ENE,65,5.0,11.0,81,0.00,,,0.00,weatherlink.com 1.10,2013-05-02 19:01:00,
2013-05-02 15:16:00,59.1,53.0,30.15,NE,56,9.0,9.0,80,0.00,,,0.00,weatherlink.com 1.10,2013-05-02 19:16:00,
2013-05-02 15:31:00,59.3,53.0,30.14,ENE,61,8.0,13.0,80,0.00,,,0.00,weatherlink.com 1.10,2013-05-02 19:31:00,
2013-05-02 15:46:00,60.1,54.0,30.13,ENE,78,9.0,12.0,80,0.00,,,0.00,weatherlink.com 1.10,2013-05-02 19:46:00,
2013-05-02 16:01:00,60.2,54.0,30.12,ENE,65,11.0,12.0,80,0.00,,,0.00,weatherlink.com 1.10,2013-05-02 20:01:00,
2013-05-02 16:16:00,60.6,54.0,30.12,ENE,72,13.0,13.0,80,0.00,,,0.00,weatherlink.com 1.10,2013-05-02 20:16:00,
2013-05-02 16:31:00,59.5,55.0,30.12,ENE,78,10.0,13.0,84,0.00,,,0.00,weatherlink.com 1.10,2013-05-02 20:31:00,
2013-05-02 16:46:00,59.2,54.0,30.11,ENE,77,12.0,12.0,84,0.00,,,0.00,weatherlink.com 1.10,2013-05-02 20:46:00,
2013-05-02 17:01:00,59.7,55.0,30.11,ENE,77,8.0,11.0,85,0.00,,,0.00,weatherlink.com 1.10,2013-05-02 21:01:00,
2013-05-02 17:16:00,61.0,57.0,30.10,ENE,69,0.0,5.0,85,0.00,,,0.00,weatherlink.com 1.10,2013-05-02 21:16:00,
2013-05-02 17:31:00,61.4,57.0,30.09,East,96,2.0,9.0,84,0.00,,,0.00,weatherlink.com 1.10,2013-05-02 21:31:00,
2013-05-02 17:46:00,63.9,58.0,30.09,East,86,1.0,9.0,81,0.00,,,0.00,weatherlink.com 1.10,2013-05-02 21:46:00,
2013-05-02 18:02:00,76.4,56.0,30.08,SE,136,8.0,12.0,50,0.00,,,0.00,weatherlink.com 1.10,2013-05-02 22:02:00,
2013-05-02 18:17:00,78.0,55.0,30.08,SE,146,13.0,19.0,45,0.00,,,0.00,weatherlink.com 1.10,2013-05-02 22:17:00,
2013-05-02 18:32:00,78.1,54.0,30.08,SSE,160,3.0,19.0,43,0.00,,,0.00,weatherlink.com 1.10,2013-05-02 22:32:00,
2013-05-02 18:47:00,77.7,55.0,30.08,SE,126,14.0,18.0,45,0.00,,,0.00,weatherlink.com 1.10,2013-05-02 22:47:00,
2013-05-02 19:02:00,77.5,54.0,30.07,SSE,150,11.0,18.0,45,0.00,,,0.00,weatherlink.com 1.10,2013-05-02 23:02:00,
2013-05-02 19:17:00,77.6,53.0,30.07,SE,135,16.0,17.0,42,0.00,,,0.00,weatherlink.com 1.10,2013-05-02 23:17:00,
2013-05-02 19:32:00,76.4,54.0,30.07,SSE,167,5.0,14.0,46,0.00,,,0.00,weatherlink.com 1.10,2013-05-02 23:32:00,
2013-05-02 19:47:00,76.4,53.0,30.07,SSE,153,8.0,14.0,44,0.00,,,0.00,weatherlink.com 1.10,2013-05-02 23:47:00,
2013-05-02 20:02:00,74.4,54.0,30.08,SSE,153,12.0,21.0,50,0.00,,,0.00,weatherlink.com 1.10,2013-05-03 00:02:00,
2013-05-02 20:17:00,73.4,54.0,30.08,SE,138,9.0,16.0,50,0.00,,,0.00,weatherlink.com 1.10,2013-05-03 00:17:00,
2013-05-02 20:32:00,72.9,53.0,30.09,SSE,162,7.0,15.0,49,0.00,,,0.00,weatherlink.com 1.10,2013-05-03 00:32:00,
2013-05-02 20:47:00,72.2,53.0,30.09,SSE,165,3.0,17.0,51,0.00,,,0.00,weatherlink.com 1.10,2013-05-03 00:47:00,
2013-05-02 21:02:00,71.4,51.0,30.09,ESE,123,4.0,15.0,49,0.00,,,0.00,weatherlink.com 1.10,2013-05-03 01:02:00,
2013-05-02 21:17:00,70.9,50.0,30.10,SE,139,7.0,14.0,48,0.00,,,0.00,weatherlink.com 1.10,2013-05-03 01:17:00,
2013-05-02 21:32:00,70.5,49.0,30.10,South,186,4.0,14.0,47,0.00,,,0.00,weatherlink.com 1.10,2013-05-03 01:32:00,
2013-05-02 21:47:00,69.9,49.0,30.11,SSE,148,6.0,14.0,47,0.00,,,0.00,weatherlink.com 1.10,2013-05-03 01:47:00,
2013-05-02 22:02:00,69.2,49.0,30.11,SSE,149,3.0,13.0,49,0.00,,,0.00,weatherlink.com 1.10,2013-05-03 02:02:00,
2013-05-02 22:17:00,68.8,49.0,30.11,SW,214,3.0,12.0,49,0.00,,,0.00,weatherlink.com 1.10,2013-05-03 02:17:00,
2013-05-02 22:32:00,68.5,49.0,30.11,SE,146,10.0,14.0,50,0.00,,,0.00,weatherlink.com 1.10,2013-05-03 02:32:00,
2013-05-02 22:47:00,68.1,49.0,30.11,SW,222,3.0,12.0,51,0.00,,,0.00,weatherlink.com 1.10,2013-05-03 02:47:00,
2013-05-02 23:02:00,67.5,49.0,30.11,South,179,4.0,10.0,52,0.00,,,0.00,weatherlink.com 1.10,2013-05-03 03:02:00,
2013-05-02 23:17:00,67.0,49.0,30.11,SE,146,4.0,8.0,53,0.00,,,0.00,weatherlink.com 1.10,2013-05-03 03:17:00,
2013-05-02 23:32:00,66.6,49.0,30.11,SSE,167,4.0,7.0,54,0.00,,,0.00,weatherlink.com 1.10,2013-05-03 03:32:00,
2013-05-02 23:47:00,66.2,49.0,30.11,SSE,158,2.0,6.0,55,0.00,,,0.00,weatherlink.com 1.10,2013-05-03 03:47:00,